sensor_id;sensor_type;location;lat;lon;timestamp;P1;durP1;ratioP1;P2;durP2;ratioP2
55706;SDS011;41608;45.384;20.394;2023-05-10T00:01:44;9.45;;;7.97;;
55706;SDS011;41608;45.384;20.394;2023-05-10T00:04:12;13.43;;;7.85;;
55706;SDS011;41608;45.384;20.394;2023-05-10T00:06:38;8.60;;;7.70;;
55706;SDS011;41608;45.384;20.394;2023-05-10T00:09:05;11.60;;;8.25;;
55706;SDS011;41608;45.384;20.394;2023-05-10T00:11:31;12.27;;;7.90;;
55706;SDS011;41608;45.384;20.394;2023-05-10T00:13:57;9.90;;;7.43;;
55706;SDS011;41608;45.384;20.394;2023-05-10T00:16:23;10.65;;;8.15;;
55706;SDS011;41608;45.384;20.394;2023-05-10T00:18:49;11.35;;;7.93;;
55706;SDS011;41608;45.384;20.394;2023-05-10T00:21:15;14.50;;;9.73;;
55706;SDS011;41608;45.384;20.394;2023-05-10T00:23:41;8.85;;;7.43;;
55706;SDS011;41608;45.384;20.394;2023-05-10T00:26:10;10.55;;;7.50;;
55706;SDS011;41608;45.384;20.394;2023-05-10T00:28:36;9.90;;;7.72;;
55706;SDS011;41608;45.384;20.394;2023-05-10T00:31:02;11.07;;;7.70;;
55706;SDS011;41608;45.384;20.394;2023-05-10T00:33:28;8.77;;;7.88;;
55706;SDS011;41608;45.384;20.394;2023-05-10T00:35:54;10.63;;;7.78;;
55706;SDS011;41608;45.384;20.394;2023-05-10T00:38:20;10.50;;;7.60;;
55706;SDS011;41608;45.384;20.394;2023-05-10T00:40:46;11.23;;;8.65;;
55706;SDS011;41608;45.384;20.394;2023-05-10T00:43:13;10.68;;;8.05;;
55706;SDS011;41608;45.384;20.394;2023-05-10T00:45:43;12.23;;;8.60;;
55706;SDS011;41608;45.384;20.394;2023-05-10T00:48:12;9.40;;;8.20;;
55706;SDS011;41608;45.384;20.394;2023-05-10T00:50:40;13.38;;;8.13;;
55706;SDS011;41608;45.384;20.394;2023-05-10T00:53:09;11.57;;;8.10;;
55706;SDS011;41608;45.384;20.394;2023-05-10T00:55:36;11.82;;;8.43;;
55706;SDS011;41608;45.384;20.394;2023-05-10T00:58:02;11.32;;;8.77;;
55706;SDS011;41608;45.384;20.394;2023-05-10T01:00:28;12.07;;;9.18;;
55706;SDS011;41608;45.384;20.394;2023-05-10T01:02:55;11.00;;;8.40;;
55706;SDS011;41608;45.384;20.394;2023-05-10T01:05:21;11.27;;;8.80;;
55706;SDS011;41608;45.384;20.394;2023-05-10T01:07:50;12.52;;;8.80;;
55706;SDS011;41608;45.384;20.394;2023-05-10T01:10:19;9.63;;;8.63;;
55706;SDS011;41608;45.384;20.394;2023-05-10T01:12:47;9.60;;;8.50;;
55706;SDS011;41608;45.384;20.394;2023-05-10T01:15:17;13.52;;;8.05;;
55706;SDS011;41608;45.384;20.394;2023-05-10T01:17:44;13.98;;;8.98;;
55706;SDS011;41608;45.384;20.394;2023-05-10T01:20:11;14.70;;;9.13;;
55706;SDS011;41608;45.384;20.394;2023-05-10T01:32:51;13.15;;;8.60;;
55706;SDS011;41608;45.384;20.394;2023-05-10T01:35:36;12.07;;;9.55;;
55706;SDS011;41608;45.384;20.394;2023-05-10T01:40:38;12.70;;;10.75;;
55706;SDS011;41608;45.384;20.394;2023-05-10T01:43:08;16.23;;;10.10;;
55706;SDS011;41608;45.384;20.394;2023-05-10T01:45:41;16.08;;;10.32;;
55706;SDS011;41608;45.384;20.394;2023-05-10T01:48:13;14.52;;;10.35;;
55706;SDS011;41608;45.384;20.394;2023-05-10T01:50:43;14.63;;;11.32;;
55706;SDS011;41608;45.384;20.394;2023-05-10T01:53:11;14.00;;;10.93;;
55706;SDS011;41608;45.384;20.394;2023-05-10T01:55:46;11.60;;;9.40;;
55706;SDS011;41608;45.384;20.394;2023-05-10T01:58:20;13.30;;;10.00;;
55706;SDS011;41608;45.384;20.394;2023-05-10T02:00:47;12.20;;;9.95;;
55706;SDS011;41608;45.384;20.394;2023-05-10T02:03:13;11.60;;;9.57;;
55706;SDS011;41608;45.384;20.394;2023-05-10T02:05:41;13.95;;;10.73;;
55706;SDS011;41608;45.384;20.394;2023-05-10T02:08:10;13.68;;;10.38;;
55706;SDS011;41608;45.384;20.394;2023-05-10T02:10:36;11.63;;;10.00;;
55706;SDS011;41608;45.384;20.394;2023-05-10T02:13:08;14.35;;;9.88;;
55706;SDS011;41608;45.384;20.394;2023-05-10T02:15:38;12.82;;;9.65;;
55706;SDS011;41608;45.384;20.394;2023-05-10T02:18:05;13.13;;;9.13;;
55706;SDS011;41608;45.384;20.394;2023-05-10T02:20:34;10.50;;;9.38;;
55706;SDS011;41608;45.384;20.394;2023-05-10T02:23:00;15.35;;;9.90;;
55706;SDS011;41608;45.384;20.394;2023-05-10T02:25:28;11.32;;;9.27;;
55706;SDS011;41608;45.384;20.394;2023-05-10T02:27:55;11.95;;;10.23;;
55706;SDS011;41608;45.384;20.394;2023-05-10T02:30:26;13.38;;;10.48;;
55706;SDS011;41608;45.384;20.394;2023-05-10T02:32:55;12.05;;;9.60;;
55706;SDS011;41608;45.384;20.394;2023-05-10T02:35:24;11.70;;;9.23;;
55706;SDS011;41608;45.384;20.394;2023-05-10T02:37:51;12.27;;;10.07;;
55706;SDS011;41608;45.384;20.394;2023-05-10T02:40:21;11.88;;;10.32;;
55706;SDS011;41608;45.384;20.394;2023-05-10T02:42:48;10.70;;;9.15;;
55706;SDS011;41608;45.384;20.394;2023-05-10T02:45:18;11.80;;;9.68;;
55706;SDS011;41608;45.384;20.394;2023-05-10T02:47:45;12.93;;;9.05;;
55706;SDS011;41608;45.384;20.394;2023-05-10T02:50:11;15.15;;;9.40;;
55706;SDS011;41608;45.384;20.394;2023-05-10T02:52:47;13.52;;;10.43;;
55706;SDS011;41608;45.384;20.394;2023-05-10T02:55:16;13.30;;;9.23;;
55706;SDS011;41608;45.384;20.394;2023-05-10T02:57:47;11.13;;;9.50;;
55706;SDS011;41608;45.384;20.394;2023-05-10T03:00:14;13.18;;;9.00;;
55706;SDS011;41608;45.384;20.394;2023-05-10T03:02:41;10.38;;;8.63;;
55706;SDS011;41608;45.384;20.394;2023-05-10T03:05:07;14.15;;;9.07;;
55706;SDS011;41608;45.384;20.394;2023-05-10T03:07:33;12.27;;;9.00;;
55706;SDS011;41608;45.384;20.394;2023-05-10T03:09:59;12.43;;;9.60;;
55706;SDS011;41608;45.384;20.394;2023-05-10T03:15:16;12.60;;;8.77;;
55706;SDS011;41608;45.384;20.394;2023-05-10T03:18:04;12.30;;;9.68;;
55706;SDS011;41608;45.384;20.394;2023-05-10T03:20:35;17.50;;;9.25;;
55706;SDS011;41608;45.384;20.394;2023-05-10T03:23:03;10.35;;;9.15;;
55706;SDS011;41608;45.384;20.394;2023-05-10T03:25:33;10.18;;;9.18;;
55706;SDS011;41608;45.384;20.394;2023-05-10T03:28:02;9.68;;;8.30;;
55706;SDS011;41608;45.384;20.394;2023-05-10T03:30:31;10.30;;;9.20;;
55706;SDS011;41608;45.384;20.394;2023-05-10T03:33:03;11.93;;;8.93;;
55706;SDS011;41608;45.384;20.394;2023-05-10T03:35:30;13.88;;;8.65;;
55706;SDS011;41608;45.384;20.394;2023-05-10T03:37:56;14.40;;;9.02;;
55706;SDS011;41608;45.384;20.394;2023-05-10T03:40:22;10.27;;;8.10;;
55706;SDS011;41608;45.384;20.394;2023-05-10T03:42:49;9.15;;;7.70;;
55706;SDS011;41608;45.384;20.394;2023-05-10T03:45:15;11.30;;;7.38;;
55706;SDS011;41608;45.384;20.394;2023-05-10T03:47:41;11.07;;;8.32;;
55706;SDS011;41608;45.384;20.394;2023-05-10T03:50:10;10.00;;;7.60;;
55706;SDS011;41608;45.384;20.394;2023-05-10T03:52:36;9.48;;;7.65;;
55706;SDS011;41608;45.384;20.394;2023-05-10T03:55:04;9.73;;;7.65;;
55706;SDS011;41608;45.384;20.394;2023-05-10T03:57:33;10.10;;;7.85;;
55706;SDS011;41608;45.384;20.394;2023-05-10T03:59:59;8.43;;;7.00;;
55706;SDS011;41608;45.384;20.394;2023-05-10T04:02:25;10.75;;;8.02;;
55706;SDS011;41608;45.384;20.394;2023-05-10T04:04:51;10.80;;;6.93;;
55706;SDS011;41608;45.384;20.394;2023-05-10T04:07:20;9.55;;;6.80;;
55706;SDS011;41608;45.384;20.394;2023-05-10T04:09:46;10.45;;;7.40;;
55706;SDS011;41608;45.384;20.394;2023-05-10T04:12:12;9.05;;;7.18;;
55706;SDS011;41608;45.384;20.394;2023-05-10T04:14:38;7.57;;;6.70;;
55706;SDS011;41608;45.384;20.394;2023-05-10T04:17:07;10.20;;;7.43;;
55706;SDS011;41608;45.384;20.394;2023-05-10T04:19:33;13.98;;;8.00;;
55706;SDS011;41608;45.384;20.394;2023-05-10T04:21:59;8.90;;;7.07;;
55706;SDS011;41608;45.384;20.394;2023-05-10T04:24:30;10.88;;;6.97;;
55706;SDS011;41608;45.384;20.394;2023-05-10T04:26:56;9.85;;;7.53;;
55706;SDS011;41608;45.384;20.394;2023-05-10T04:29:25;10.35;;;7.28;;
55706;SDS011;41608;45.384;20.394;2023-05-10T04:31:52;7.88;;;6.10;;
55706;SDS011;41608;45.384;20.394;2023-05-10T04:34:20;8.30;;;6.95;;
55706;SDS011;41608;45.384;20.394;2023-05-10T04:36:46;8.82;;;7.47;;
55706;SDS011;41608;45.384;20.394;2023-05-10T04:39:12;8.98;;;6.95;;
55706;SDS011;41608;45.384;20.394;2023-05-10T04:41:38;11.35;;;7.15;;
55706;SDS011;41608;45.384;20.394;2023-05-10T04:44:07;11.25;;;7.75;;
55706;SDS011;41608;45.384;20.394;2023-05-10T04:46:33;12.90;;;7.57;;
55706;SDS011;41608;45.384;20.394;2023-05-10T04:48:59;9.38;;;8.15;;
55706;SDS011;41608;45.384;20.394;2023-05-10T04:51:26;11.35;;;6.75;;
55706;SDS011;41608;45.384;20.394;2023-05-10T04:53:52;9.93;;;6.53;;
55706;SDS011;41608;45.384;20.394;2023-05-10T04:56:20;9.23;;;7.07;;
55706;SDS011;41608;45.384;20.394;2023-05-10T04:58:47;8.40;;;7.25;;
55706;SDS011;41608;45.384;20.394;2023-05-10T05:01:14;9.35;;;7.80;;
55706;SDS011;41608;45.384;20.394;2023-05-10T05:03:40;14.32;;;8.48;;
55706;SDS011;41608;45.384;20.394;2023-05-10T05:06:07;9.35;;;7.25;;
55706;SDS011;41608;45.384;20.394;2023-05-10T05:08:33;9.18;;;7.70;;
55706;SDS011;41608;45.384;20.394;2023-05-10T05:10:59;9.82;;;7.28;;
55706;SDS011;41608;45.384;20.394;2023-05-10T05:13:25;10.30;;;6.95;;
55706;SDS011;41608;45.384;20.394;2023-05-10T05:15:52;7.43;;;6.63;;
55706;SDS011;41608;45.384;20.394;2023-05-10T05:18:18;8.45;;;6.78;;
55706;SDS011;41608;45.384;20.394;2023-05-10T05:20:44;13.57;;;7.43;;
55706;SDS011;41608;45.384;20.394;2023-05-10T05:23:13;11.23;;;7.38;;
55706;SDS011;41608;45.384;20.394;2023-05-10T05:25:41;11.38;;;6.95;;
55706;SDS011;41608;45.384;20.394;2023-05-10T05:28:08;8.88;;;6.90;;
55706;SDS011;41608;45.384;20.394;2023-05-10T05:30:36;13.90;;;7.38;;
55706;SDS011;41608;45.384;20.394;2023-05-10T05:33:03;10.15;;;6.82;;
55706;SDS011;41608;45.384;20.394;2023-05-10T05:35:29;13.77;;;7.95;;
55706;SDS011;41608;45.384;20.394;2023-05-10T05:37:55;7.50;;;6.43;;
55706;SDS011;41608;45.384;20.394;2023-05-10T05:40:26;9.80;;;6.53;;
55706;SDS011;41608;45.384;20.394;2023-05-10T05:42:52;8.23;;;6.40;;
55706;SDS011;41608;45.384;20.394;2023-05-10T05:45:18;10.32;;;6.05;;
55706;SDS011;41608;45.384;20.394;2023-05-10T05:47:47;9.85;;;6.75;;
55706;SDS011;41608;45.384;20.394;2023-05-10T05:50:13;9.32;;;7.22;;
55706;SDS011;41608;45.384;20.394;2023-05-10T05:52:39;12.60;;;7.05;;
55706;SDS011;41608;45.384;20.394;2023-05-10T05:55:06;11.20;;;7.05;;
55706;SDS011;41608;45.384;20.394;2023-05-10T05:57:34;8.13;;;6.43;;
55706;SDS011;41608;45.384;20.394;2023-05-10T06:00:01;9.95;;;6.30;;
55706;SDS011;41608;45.384;20.394;2023-05-10T06:02:28;9.50;;;6.20;;
55706;SDS011;41608;45.384;20.394;2023-05-10T06:04:54;22.13;;;6.35;;
55706;SDS011;41608;45.384;20.394;2023-05-10T06:07:20;10.95;;;6.28;;
55706;SDS011;41608;45.384;20.394;2023-05-10T06:09:52;18.25;;;6.65;;
55706;SDS011;41608;45.384;20.394;2023-05-10T06:12:18;14.77;;;8.70;;
55706;SDS011;41608;45.384;20.394;2023-05-10T06:14:44;9.35;;;5.65;;
55706;SDS011;41608;45.384;20.394;2023-05-10T06:17:10;8.73;;;5.50;;
55706;SDS011;41608;45.384;20.394;2023-05-10T06:19:36;15.25;;;6.75;;
55706;SDS011;41608;45.384;20.394;2023-05-10T06:22:02;10.45;;;6.15;;
55706;SDS011;41608;45.384;20.394;2023-05-10T06:24:29;8.52;;;5.30;;
55706;SDS011;41608;45.384;20.394;2023-05-10T06:26:55;8.13;;;5.63;;
55706;SDS011;41608;45.384;20.394;2023-05-10T06:29:30;10.30;;;5.63;;
55706;SDS011;41608;45.384;20.394;2023-05-10T06:31:56;9.18;;;5.78;;
55706;SDS011;41608;45.384;20.394;2023-05-10T06:34:22;10.82;;;6.35;;
55706;SDS011;41608;45.384;20.394;2023-05-10T06:36:48;10.80;;;5.43;;
55706;SDS011;41608;45.384;20.394;2023-05-10T06:39:15;9.57;;;5.93;;
55706;SDS011;41608;45.384;20.394;2023-05-10T06:41:41;9.32;;;6.30;;
55706;SDS011;41608;45.384;20.394;2023-05-10T06:44:09;6.25;;;5.00;;
55706;SDS011;41608;45.384;20.394;2023-05-10T06:46:35;11.32;;;5.80;;
55706;SDS011;41608;45.384;20.394;2023-05-10T06:49:01;7.82;;;5.18;;
55706;SDS011;41608;45.384;20.394;2023-05-10T06:51:28;7.43;;;4.95;;
55706;SDS011;41608;45.384;20.394;2023-05-10T06:53:54;9.05;;;4.55;;
55706;SDS011;41608;45.384;20.394;2023-05-10T06:56:20;9.23;;;4.53;;
55706;SDS011;41608;45.384;20.394;2023-05-10T06:58:49;10.30;;;5.15;;
55706;SDS011;41608;45.384;20.394;2023-05-10T07:01:19;7.35;;;4.63;;
55706;SDS011;41608;45.384;20.394;2023-05-10T07:03:46;10.18;;;4.53;;
55706;SDS011;41608;45.384;20.394;2023-05-10T07:06:12;11.27;;;5.00;;
55706;SDS011;41608;45.384;20.394;2023-05-10T07:08:38;8.38;;;4.43;;
55706;SDS011;41608;45.384;20.394;2023-05-10T07:11:05;9.80;;;4.82;;
55706;SDS011;41608;45.384;20.394;2023-05-10T07:13:36;12.32;;;4.97;;
55706;SDS011;41608;45.384;20.394;2023-05-10T07:16:04;14.00;;;5.60;;
55706;SDS011;41608;45.384;20.394;2023-05-10T07:18:33;14.60;;;5.63;;
55706;SDS011;41608;45.384;20.394;2023-05-10T07:20:59;13.52;;;5.38;;
55706;SDS011;41608;45.384;20.394;2023-05-10T07:23:28;15.25;;;5.07;;
55706;SDS011;41608;45.384;20.394;2023-05-10T07:25:54;9.27;;;5.07;;
55706;SDS011;41608;45.384;20.394;2023-05-10T07:28:23;10.45;;;5.75;;
55706;SDS011;41608;45.384;20.394;2023-05-10T07:30:49;12.00;;;6.00;;
55706;SDS011;41608;45.384;20.394;2023-05-10T07:33:16;13.35;;;5.28;;
55706;SDS011;41608;45.384;20.394;2023-05-10T07:35:42;10.25;;;5.35;;
55706;SDS011;41608;45.384;20.394;2023-05-10T07:38:08;11.88;;;5.95;;
55706;SDS011;41608;45.384;20.394;2023-05-10T07:40:42;7.75;;;6.00;;
55706;SDS011;41608;45.384;20.394;2023-05-10T07:43:08;9.32;;;5.85;;
55706;SDS011;41608;45.384;20.394;2023-05-10T07:45:37;9.45;;;6.28;;
55706;SDS011;41608;45.384;20.394;2023-05-10T07:48:06;9.85;;;5.70;;
55706;SDS011;41608;45.384;20.394;2023-05-10T07:50:32;9.52;;;6.00;;
55706;SDS011;41608;45.384;20.394;2023-05-10T07:53:01;13.48;;;5.35;;
55706;SDS011;41608;45.384;20.394;2023-05-10T07:55:28;9.32;;;5.60;;
55706;SDS011;41608;45.384;20.394;2023-05-10T07:57:56;9.40;;;5.80;;
55706;SDS011;41608;45.384;20.394;2023-05-10T08:00:22;11.60;;;7.57;;
55706;SDS011;41608;45.384;20.394;2023-05-10T08:02:49;12.18;;;5.47;;
55706;SDS011;41608;45.384;20.394;2023-05-10T08:05:15;9.50;;;5.53;;
55706;SDS011;41608;45.384;20.394;2023-05-10T08:07:41;10.88;;;5.53;;
55706;SDS011;41608;45.384;20.394;2023-05-10T08:10:08;12.05;;;5.43;;
55706;SDS011;41608;45.384;20.394;2023-05-10T08:12:38;8.80;;;5.32;;
55706;SDS011;41608;45.384;20.394;2023-05-10T08:15:04;12.43;;;4.82;;
55706;SDS011;41608;45.384;20.394;2023-05-10T08:17:32;11.50;;;4.43;;
55706;SDS011;41608;45.384;20.394;2023-05-10T08:19:58;8.93;;;4.80;;
55706;SDS011;41608;45.384;20.394;2023-05-10T08:22:24;9.88;;;4.53;;
55706;SDS011;41608;45.384;20.394;2023-05-10T08:24:51;8.40;;;4.78;;
55706;SDS011;41608;45.384;20.394;2023-05-10T08:27:19;6.75;;;5.03;;
55706;SDS011;41608;45.384;20.394;2023-05-10T08:29:45;11.77;;;5.28;;
55706;SDS011;41608;45.384;20.394;2023-05-10T08:32:14;9.68;;;4.05;;
55706;SDS011;41608;45.384;20.394;2023-05-10T08:34:40;9.68;;;4.53;;
55706;SDS011;41608;45.384;20.394;2023-05-10T08:37:06;9.70;;;4.00;;
55706;SDS011;41608;45.384;20.394;2023-05-10T08:39:38;14.32;;;4.45;;
55706;SDS011;41608;45.384;20.394;2023-05-10T08:42:04;38.45;;;14.15;;
55706;SDS011;41608;45.384;20.394;2023-05-10T08:44:31;13.70;;;4.60;;
55706;SDS011;41608;45.384;20.394;2023-05-10T08:46:58;11.18;;;5.10;;
55706;SDS011;41608;45.384;20.394;2023-05-10T08:49:25;12.25;;;4.63;;
55706;SDS011;41608;45.384;20.394;2023-05-10T08:51:58;9.77;;;3.88;;
55706;SDS011;41608;45.384;20.394;2023-05-10T08:54:25;6.93;;;3.90;;
55706;SDS011;41608;45.384;20.394;2023-05-10T08:56:51;8.27;;;3.95;;
55706;SDS011;41608;45.384;20.394;2023-05-10T08:59:18;9.88;;;4.25;;
55706;SDS011;41608;45.384;20.394;2023-05-10T09:01:53;6.70;;;3.63;;
55706;SDS011;41608;45.384;20.394;2023-05-10T09:04:21;13.57;;;4.03;;
55706;SDS011;41608;45.384;20.394;2023-05-10T09:06:55;11.73;;;4.80;;
55706;SDS011;41608;45.384;20.394;2023-05-10T09:09:21;10.43;;;3.80;;
55706;SDS011;41608;45.384;20.394;2023-05-10T09:11:47;6.78;;;3.55;;
55706;SDS011;41608;45.384;20.394;2023-05-10T09:14:18;12.90;;;4.90;;
55706;SDS011;41608;45.384;20.394;2023-05-10T09:16:45;9.05;;;3.50;;
55706;SDS011;41608;45.384;20.394;2023-05-10T09:19:11;6.68;;;3.08;;
55706;SDS011;41608;45.384;20.394;2023-05-10T09:21:40;6.70;;;3.20;;
55706;SDS011;41608;45.384;20.394;2023-05-10T09:24:09;9.90;;;3.78;;
55706;SDS011;41608;45.384;20.394;2023-05-10T09:26:35;12.20;;;3.25;;
55706;SDS011;41608;45.384;20.394;2023-05-10T09:29:13;29.02;;;5.18;;
55706;SDS011;41608;45.384;20.394;2023-05-10T09:31:50;5.25;;;3.28;;
55706;SDS011;41608;45.384;20.394;2023-05-10T09:34:28;13.45;;;3.42;;
55706;SDS011;41608;45.384;20.394;2023-05-10T09:36:58;5.32;;;3.88;;
55706;SDS011;41608;45.384;20.394;2023-05-10T09:39:32;5.97;;;3.72;;
55706;SDS011;41608;45.384;20.394;2023-05-10T09:42:06;15.93;;;5.05;;
55706;SDS011;41608;45.384;20.394;2023-05-10T09:44:35;12.25;;;3.92;;
55706;SDS011;41608;45.384;20.394;2023-05-10T09:47:03;13.50;;;4.53;;
55706;SDS011;41608;45.384;20.394;2023-05-10T09:49:32;10.57;;;3.60;;
55706;SDS011;41608;45.384;20.394;2023-05-10T09:52:02;7.47;;;3.20;;
55706;SDS011;41608;45.384;20.394;2023-05-10T09:54:31;10.00;;;3.72;;
55706;SDS011;41608;45.384;20.394;2023-05-10T09:56:57;9.45;;;3.75;;
55706;SDS011;41608;45.384;20.394;2023-05-10T09:59:27;8.00;;;3.15;;
55706;SDS011;41608;45.384;20.394;2023-05-10T10:01:57;8.70;;;3.35;;
55706;SDS011;41608;45.384;20.394;2023-05-10T10:04:26;5.47;;;3.67;;
55706;SDS011;41608;45.384;20.394;2023-05-10T10:07:06;5.75;;;2.80;;
55706;SDS011;41608;45.384;20.394;2023-05-10T10:09:33;8.95;;;3.38;;
55706;SDS011;41608;45.384;20.394;2023-05-10T10:12:03;11.88;;;3.63;;
55706;SDS011;41608;45.384;20.394;2023-05-10T10:14:31;10.57;;;3.70;;
55706;SDS011;41608;45.384;20.394;2023-05-10T10:16:57;6.38;;;3.25;;
55706;SDS011;41608;45.384;20.394;2023-05-10T10:19:26;11.35;;;4.32;;
55706;SDS011;41608;45.384;20.394;2023-05-10T10:21:54;13.38;;;3.92;;
55706;SDS011;41608;45.384;20.394;2023-05-10T10:24:20;8.77;;;3.00;;
55706;SDS011;41608;45.384;20.394;2023-05-10T10:26:49;7.78;;;3.20;;
55706;SDS011;41608;45.384;20.394;2023-05-10T10:31:55;5.82;;;2.40;;
55706;SDS011;41608;45.384;20.394;2023-05-10T10:34:27;10.23;;;3.47;;
55706;SDS011;41608;45.384;20.394;2023-05-10T10:36:53;5.45;;;3.08;;
55706;SDS011;41608;45.384;20.394;2023-05-10T10:39:20;8.30;;;2.78;;
55706;SDS011;41608;45.384;20.394;2023-05-10T10:42:05;6.78;;;2.95;;
55706;SDS011;41608;45.384;20.394;2023-05-10T10:52:27;8.23;;;3.00;;
55706;SDS011;41608;45.384;20.394;2023-05-10T10:55:00;4.82;;;2.45;;
55706;SDS011;41608;45.384;20.394;2023-05-10T10:57:31;9.20;;;3.50;;
55706;SDS011;41608;45.384;20.394;2023-05-10T11:02:52;5.90;;;2.75;;
55706;SDS011;41608;45.384;20.394;2023-05-10T11:07:51;12.43;;;2.95;;
55706;SDS011;41608;45.384;20.394;2023-05-10T11:10:25;15.48;;;3.30;;
55706;SDS011;41608;45.384;20.394;2023-05-10T11:15:34;11.80;;;2.95;;
55706;SDS011;41608;45.384;20.394;2023-05-10T11:18:16;9.50;;;3.17;;
55706;SDS011;41608;45.384;20.394;2023-05-10T11:20:42;6.97;;;2.88;;
55706;SDS011;41608;45.384;20.394;2023-05-10T11:23:12;9.63;;;3.47;;
55706;SDS011;41608;45.384;20.394;2023-05-10T11:25:44;22.27;;;7.20;;
55706;SDS011;41608;45.384;20.394;2023-05-10T11:28:11;18.42;;;7.63;;
55706;SDS011;41608;45.384;20.394;2023-05-10T11:30:41;12.75;;;5.32;;
55706;SDS011;41608;45.384;20.394;2023-05-10T11:33:09;18.55;;;5.57;;
55706;SDS011;41608;45.384;20.394;2023-05-10T11:35:38;17.55;;;3.88;;
55706;SDS011;41608;45.384;20.394;2023-05-10T11:38:06;15.65;;;4.15;;
55706;SDS011;41608;45.384;20.394;2023-05-10T11:40:32;17.33;;;4.13;;
55706;SDS011;41608;45.384;20.394;2023-05-10T11:42:58;16.23;;;3.63;;
55706;SDS011;41608;45.384;20.394;2023-05-10T11:45:24;8.82;;;2.92;;
55706;SDS011;41608;45.384;20.394;2023-05-10T11:47:51;7.30;;;3.28;;
55706;SDS011;41608;45.384;20.394;2023-05-10T11:50:17;9.85;;;3.10;;
55706;SDS011;41608;45.384;20.394;2023-05-10T11:52:49;11.90;;;3.40;;
55706;SDS011;41608;45.384;20.394;2023-05-10T11:55:16;11.43;;;3.50;;
55706;SDS011;41608;45.384;20.394;2023-05-10T11:57:42;10.80;;;4.78;;
55706;SDS011;41608;45.384;20.394;2023-05-10T12:00:11;9.23;;;4.22;;
55706;SDS011;41608;45.384;20.394;2023-05-10T12:02:37;11.77;;;3.95;;
55706;SDS011;41608;45.384;20.394;2023-05-10T12:05:03;9.27;;;3.50;;
55706;SDS011;41608;45.384;20.394;2023-05-10T12:07:32;8.30;;;3.22;;
55706;SDS011;41608;45.384;20.394;2023-05-10T12:10:08;14.82;;;3.35;;
55706;SDS011;41608;45.384;20.394;2023-05-10T12:12:45;7.93;;;2.75;;
55706;SDS011;41608;45.384;20.394;2023-05-10T12:15:22;9.07;;;3.65;;
55706;SDS011;41608;45.384;20.394;2023-05-10T12:17:49;8.15;;;3.58;;
55706;SDS011;41608;45.384;20.394;2023-05-10T12:20:19;14.57;;;3.45;;
55706;SDS011;41608;45.384;20.394;2023-05-10T12:22:52;18.92;;;4.30;;
55706;SDS011;41608;45.384;20.394;2023-05-10T12:25:18;9.75;;;2.97;;
55706;SDS011;41608;45.384;20.394;2023-05-10T12:27:51;7.82;;;3.55;;
55706;SDS011;41608;45.384;20.394;2023-05-10T12:30:21;13.18;;;4.07;;
55706;SDS011;41608;45.384;20.394;2023-05-10T12:32:50;15.10;;;3.72;;
55706;SDS011;41608;45.384;20.394;2023-05-10T12:35:17;10.18;;;3.50;;
55706;SDS011;41608;45.384;20.394;2023-05-10T12:37:47;18.00;;;4.63;;
55706;SDS011;41608;45.384;20.394;2023-05-10T12:40:13;11.25;;;3.72;;
55706;SDS011;41608;45.384;20.394;2023-05-10T12:42:39;9.05;;;3.40;;
55706;SDS011;41608;45.384;20.394;2023-05-10T12:45:06;13.30;;;3.67;;
55706;SDS011;41608;45.384;20.394;2023-05-10T12:47:32;9.25;;;3.00;;
55706;SDS011;41608;45.384;20.394;2023-05-10T12:49:59;13.63;;;3.83;;
55706;SDS011;41608;45.384;20.394;2023-05-10T12:52:29;9.20;;;3.13;;
55706;SDS011;41608;45.384;20.394;2023-05-10T12:54:57;6.68;;;3.60;;
55706;SDS011;41608;45.384;20.394;2023-05-10T12:57:24;6.32;;;2.55;;
55706;SDS011;41608;45.384;20.394;2023-05-10T12:59:50;7.75;;;3.30;;
55706;SDS011;41608;45.384;20.394;2023-05-10T13:02:16;4.68;;;2.55;;
55706;SDS011;41608;45.384;20.394;2023-05-10T13:04:48;9.07;;;2.90;;
55706;SDS011;41608;45.384;20.394;2023-05-10T13:07:14;8.60;;;2.75;;
55706;SDS011;41608;45.384;20.394;2023-05-10T13:09:43;8.63;;;2.78;;
55706;SDS011;41608;45.384;20.394;2023-05-10T13:12:09;28.92;;;5.05;;
55706;SDS011;41608;45.384;20.394;2023-05-10T13:14:35;12.75;;;3.65;;
55706;SDS011;41608;45.384;20.394;2023-05-10T13:17:03;8.68;;;2.53;;
55706;SDS011;41608;45.384;20.394;2023-05-10T13:19:30;6.15;;;3.00;;
55706;SDS011;41608;45.384;20.394;2023-05-10T13:21:56;7.47;;;2.40;;
55706;SDS011;41608;45.384;20.394;2023-05-10T13:24:23;9.77;;;2.15;;
55706;SDS011;41608;45.384;20.394;2023-05-10T13:26:49;8.98;;;2.95;;
55706;SDS011;41608;45.384;20.394;2023-05-10T13:29:17;7.95;;;2.72;;
55706;SDS011;41608;45.384;20.394;2023-05-10T13:31:45;10.20;;;3.00;;
55706;SDS011;41608;45.384;20.394;2023-05-10T13:34:12;7.85;;;2.70;;
55706;SDS011;41608;45.384;20.394;2023-05-10T13:36:40;7.88;;;2.65;;
55706;SDS011;41608;45.384;20.394;2023-05-10T13:39:07;7.50;;;2.90;;
55706;SDS011;41608;45.384;20.394;2023-05-10T13:41:33;9.13;;;3.13;;
55706;SDS011;41608;45.384;20.394;2023-05-10T13:43:59;8.00;;;3.15;;
55706;SDS011;41608;45.384;20.394;2023-05-10T13:46:26;4.20;;;2.25;;
55706;SDS011;41608;45.384;20.394;2023-05-10T13:48:52;8.38;;;3.45;;
55706;SDS011;41608;45.384;20.394;2023-05-10T13:51:18;5.82;;;3.13;;
55706;SDS011;41608;45.384;20.394;2023-05-10T13:53:44;6.78;;;2.50;;
55706;SDS011;41608;45.384;20.394;2023-05-10T13:56:12;6.20;;;2.78;;
55706;SDS011;41608;45.384;20.394;2023-05-10T13:58:38;9.55;;;2.28;;
55706;SDS011;41608;45.384;20.394;2023-05-10T14:01:07;5.57;;;2.45;;
55706;SDS011;41608;45.384;20.394;2023-05-10T14:03:33;4.53;;;2.50;;
55706;SDS011;41608;45.384;20.394;2023-05-10T14:06:01;5.30;;;2.17;;
55706;SDS011;41608;45.384;20.394;2023-05-10T14:08:32;4.78;;;2.15;;
55706;SDS011;41608;45.384;20.394;2023-05-10T14:10:58;7.43;;;2.53;;
55706;SDS011;41608;45.384;20.394;2023-05-10T14:13:24;6.78;;;2.88;;
55706;SDS011;41608;45.384;20.394;2023-05-10T14:15:52;6.47;;;2.65;;
55706;SDS011;41608;45.384;20.394;2023-05-10T14:18:18;7.10;;;3.13;;
55706;SDS011;41608;45.384;20.394;2023-05-10T14:20:44;6.72;;;2.33;;
55706;SDS011;41608;45.384;20.394;2023-05-10T14:23:13;5.53;;;2.35;;
55706;SDS011;41608;45.384;20.394;2023-05-10T14:25:48;8.63;;;3.47;;
55706;SDS011;41608;45.384;20.394;2023-05-10T14:28:14;6.18;;;2.33;;
55706;SDS011;41608;45.384;20.394;2023-05-10T14:30:40;5.60;;;2.45;;
55706;SDS011;41608;45.384;20.394;2023-05-10T14:33:07;18.92;;;3.22;;
55706;SDS011;41608;45.384;20.394;2023-05-10T14:35:33;7.78;;;2.60;;
55706;SDS011;41608;45.384;20.394;2023-05-10T14:38:00;6.70;;;2.90;;
55706;SDS011;41608;45.384;20.394;2023-05-10T14:40:26;8.88;;;2.47;;
55706;SDS011;41608;45.384;20.394;2023-05-10T14:42:55;10.75;;;2.42;;
55706;SDS011;41608;45.384;20.394;2023-05-10T14:45:22;7.78;;;2.60;;
55706;SDS011;41608;45.384;20.394;2023-05-10T14:47:48;7.65;;;2.78;;
55706;SDS011;41608;45.384;20.394;2023-05-10T14:50:15;5.30;;;2.80;;
55706;SDS011;41608;45.384;20.394;2023-05-10T14:52:44;6.90;;;2.88;;
55706;SDS011;41608;45.384;20.394;2023-05-10T14:55:14;7.40;;;3.38;;
55706;SDS011;41608;45.384;20.394;2023-05-10T14:57:40;7.70;;;2.92;;
55706;SDS011;41608;45.384;20.394;2023-05-10T15:00:07;7.53;;;2.80;;
55706;SDS011;41608;45.384;20.394;2023-05-10T15:02:34;4.97;;;2.90;;
55706;SDS011;41608;45.384;20.394;2023-05-10T15:05:00;10.95;;;2.47;;
55706;SDS011;41608;45.384;20.394;2023-05-10T15:07:26;9.20;;;2.90;;